RJTQ(METAR)
05/21 16:00
RJTQ 210700Z 11016KT 8000 RA FEW020 SCT040 BKNXXX 17/15 Q1008 RMK
A2978=
戻る
トップページへ戻る
IMOC Co,.Ltd.